createdAt,value
2022-12-01T00:02:19.088Z,33.65
2022-12-01T00:04:48.179Z,31.98
2022-12-01T00:07:14.696Z,31.98
2022-12-01T00:09:59.554Z,33.40
2022-12-01T00:12:26.035Z,32.85
2022-12-01T00:15:00.974Z,33.10
2022-12-01T00:17:29.244Z,30.65
2022-12-01T00:19:56.375Z,31.92
2022-12-01T00:22:22.971Z,30.58
2022-12-01T00:24:49.474Z,32.30
2022-12-01T00:27:15.987Z,31.73
2022-12-01T00:29:42.469Z,31.38
2022-12-01T00:32:09.622Z,29.27
2022-12-01T00:34:37.851Z,30.83
2022-12-01T00:37:05.010Z,30.00
2022-12-01T00:39:31.550Z,31.70
2022-12-01T00:41:58.084Z,30.92
2022-12-01T00:44:24.686Z,31.35
2022-12-01T00:46:51.285Z,29.38
2022-12-01T00:49:17.791Z,31.38
2022-12-01T00:51:44.320Z,32.55
2022-12-01T00:54:10.880Z,32.35
2022-12-01T00:56:37.357Z,30.63
2022-12-01T00:59:03.954Z,31.25
2022-12-01T01:01:30.560Z,30.08
2022-12-01T01:03:58.098Z,30.80
2022-12-01T01:06:24.618Z,30.85
2022-12-01T01:08:51.121Z,29.92
2022-12-01T01:11:17.867Z,28.60
2022-12-01T01:13:44.414Z,27.50
2022-12-01T01:16:16.577Z,29.55
2022-12-01T01:18:44.155Z,31.25
2022-12-01T01:21:13.675Z,28.15
2022-12-01T01:23:40.271Z,30.08
2022-12-01T01:26:10.768Z,31.65
2022-12-01T01:28:37.355Z,30.50
2022-12-01T01:31:12.863Z,28.95
2022-12-01T01:33:39.445Z,26.98
2022-12-01T01:36:07.012Z,29.42
2022-12-01T01:38:34.557Z,28.55
2022-12-01T01:41:02.024Z,28.77
2022-12-01T01:43:55.178Z,28.00
2022-12-01T01:46:28.648Z,29.38
2022-12-01T01:49:05.114Z,28.75
2022-12-01T01:51:42.187Z,31.30
2022-12-01T01:54:17.070Z,30.27
2022-12-01T01:56:45.122Z,30.02
2022-12-01T01:59:15.148Z,28.85
2022-12-01T02:01:41.698Z,30.42
2022-12-01T02:04:08.652Z,27.95
2022-12-01T02:06:35.423Z,28.38
2022-12-01T02:09:02.525Z,28.70
2022-12-01T02:11:51.097Z,30.65
2022-12-01T02:15:04.939Z,27.63
2022-12-01T02:17:42.126Z,28.92
2022-12-01T02:20:23.728Z,27.25
2022-12-01T02:23:12.055Z,29.52
2022-12-01T02:25:51.314Z,31.75
2022-12-01T02:28:34.319Z,29.58
2022-12-01T02:31:15.709Z,29.55
2022-12-01T02:33:48.990Z,27.13
2022-12-01T02:36:32.320Z,28.42
2022-12-01T02:39:24.605Z,29.77
2022-12-01T02:41:58.861Z,27.48
2022-12-01T02:44:35.126Z,28.35
2022-12-01T02:47:11.115Z,27.80
2022-12-01T02:49:43.217Z,30.15
2022-12-01T02:52:11.345Z,29.20
2022-12-01T02:54:38.654Z,28.40
2022-12-01T02:57:05.240Z,32.33
2022-12-01T02:59:31.771Z,27.23
2022-12-01T03:02:09.625Z,29.67
2022-12-01T03:04:50.617Z,27.52
2022-12-01T03:07:27.918Z,29.55
2022-12-01T03:10:12.938Z,29.35
2022-12-01T03:12:57.742Z,27.55
2022-12-01T03:15:29.927Z,28.30
2022-12-01T03:18:17.731Z,29.83
2022-12-01T03:20:53.153Z,29.40
2022-12-01T03:23:23.220Z,28.60
2022-12-01T03:25:54.041Z,30.63
2022-12-01T03:28:28.761Z,30.50
2022-12-01T03:30:59.690Z,30.08
2022-12-01T03:33:35.047Z,29.92
2022-12-01T03:36:10.454Z,30.23
2022-12-01T03:38:37.752Z,32.22
2022-12-01T03:41:13.280Z,31.05
2022-12-01T03:43:44.636Z,28.50
2022-12-01T03:46:53.476Z,31.65
2022-12-01T03:49:21.735Z,32.17
2022-12-01T03:52:09.205Z,30.88
2022-12-01T03:57:25.239Z,33.53
2022-12-01T03:59:53.149Z,31.45
2022-12-01T04:02:19.982Z,29.40
2022-12-01T04:04:46.505Z,33.55
2022-12-01T04:07:14.293Z,33.30
2022-12-01T04:09:41.718Z,33.33
2022-12-01T04:12:29.748Z,33.88
2022-12-01T04:15:01.324Z,31.10
2022-12-01T04:17:28.364Z,32.38
2022-12-01T04:19:54.893Z,29.25
2022-12-01T04:22:21.540Z,31.17
2022-12-01T04:24:48.265Z,28.45
2022-12-01T04:27:14.826Z,29.00
2022-12-01T04:29:41.350Z,30.40
2022-12-01T04:32:07.880Z,30.98
2022-12-01T04:34:34.432Z,30.20
2022-12-01T04:37:00.989Z,29.25
2022-12-01T04:39:27.509Z,29.98
2022-12-01T04:41:54.021Z,30.55
2022-12-01T04:44:20.600Z,29.73
2022-12-01T04:46:47.321Z,29.92
2022-12-01T04:49:13.874Z,34.45
2022-12-01T04:51:40.377Z,33.10
2022-12-01T04:54:06.896Z,31.88
2022-12-01T04:56:33.682Z,29.73
2022-12-01T04:59:00.811Z,32.80
2022-12-01T05:01:27.798Z,32.50
2022-12-01T05:03:54.497Z,31.67
2022-12-01T05:06:24.515Z,34.17
2022-12-01T05:08:54.103Z,34.28
2022-12-01T05:11:20.645Z,36.72
2022-12-01T05:13:48.972Z,33.40
2022-12-01T05:16:21.782Z,32.50
2022-12-01T05:19:13.921Z,32.80
2022-12-01T05:21:42.019Z,33.40
2022-12-01T05:24:09.380Z,34.08
2022-12-01T05:26:35.937Z,32.65
2022-12-01T05:29:02.728Z,35.60
2022-12-01T05:31:29.498Z,36.08
2022-12-01T05:33:56.127Z,35.13
2022-12-01T05:36:22.749Z,34.50
2022-12-01T05:38:49.266Z,35.38
2022-12-01T05:41:16.277Z,34.33
2022-12-01T05:43:42.787Z,35.28
2022-12-01T05:46:09.477Z,34.70
2022-12-01T05:48:36.197Z,34.15
2022-12-01T05:51:14.033Z,34.72
2022-12-01T05:53:40.952Z,34.58
2022-12-01T05:56:08.447Z,35.13
2022-12-01T05:58:35.756Z,34.17
2022-12-01T06:01:02.809Z,35.03
2022-12-01T06:03:29.323Z,36.35
2022-12-01T06:05:55.859Z,34.47
2022-12-01T06:08:22.384Z,35.75
2022-12-01T06:10:48.909Z,35.90
2022-12-01T06:13:15.453Z,37.85
2022-12-01T06:15:42.251Z,33.25
2022-12-01T06:18:08.798Z,34.88
2022-12-01T06:20:35.420Z,33.50
2022-12-01T06:23:02.829Z,34.45
2022-12-01T06:25:29.420Z,35.47
2022-12-01T06:27:58.348Z,34.47
2022-12-01T06:30:25.652Z,35.65
2022-12-01T06:32:52.192Z,35.50
2022-12-01T06:35:18.894Z,33.88
2022-12-01T06:37:45.470Z,37.17
2022-12-01T06:40:12.357Z,37.42
2022-12-01T06:42:38.917Z,36.00
2022-12-01T06:45:05.949Z,36.80
2022-12-01T06:47:32.611Z,34.38
2022-12-01T06:49:59.194Z,36.30
2022-12-01T06:52:25.830Z,35.65
2022-12-01T06:54:52.341Z,35.83
2022-12-01T06:57:19.276Z,39.35
2022-12-01T06:59:45.964Z,36.78
2022-12-01T07:02:13.422Z,37.38
2022-12-01T07:04:39.999Z,37.88
2022-12-01T07:07:06.572Z,35.42
2022-12-01T07:09:33.687Z,35.08
2022-12-01T07:12:00.348Z,35.97
2022-12-01T07:14:27.445Z,36.58
2022-12-01T07:16:54.240Z,37.13
2022-12-01T07:19:20.821Z,35.47
2022-12-01T07:21:47.471Z,35.70
2022-12-01T07:24:14.343Z,35.20
2022-12-01T07:26:41.525Z,37.80
2022-12-01T07:29:09.255Z,34.10
2022-12-01T07:31:37.628Z,34.47
2022-12-01T07:34:04.553Z,36.83
2022-12-01T07:36:31.333Z,34.00
2022-12-01T07:38:57.870Z,33.40
2022-12-01T07:41:24.434Z,35.70
2022-12-01T07:43:51.075Z,36.38
2022-12-01T07:46:24.520Z,35.88
2022-12-01T07:48:52.754Z,36.38
2022-12-01T07:51:19.761Z,32.38
2022-12-01T07:53:48.014Z,36.25
2022-12-01T07:56:14.850Z,34.60
2022-12-01T07:58:42.117Z,35.08
2022-12-01T08:01:10.722Z,36.10
2022-12-01T08:03:38.448Z,35.25
2022-12-01T08:06:06.289Z,33.05
2022-12-01T08:08:34.613Z,33.15
2022-12-01T08:11:03.569Z,34.88
2022-12-01T08:13:30.682Z,33.35
2022-12-01T08:15:57.300Z,35.17
2022-12-01T08:18:24.585Z,34.72
2022-12-01T08:20:51.836Z,35.58
2022-12-01T08:23:18.872Z,33.42
2022-12-01T08:28:11.936Z,34.58
2022-12-01T08:30:38.560Z,34.13
2022-12-01T08:33:05.129Z,33.55
2022-12-01T08:35:33.818Z,33.03
2022-12-01T08:38:00.316Z,32.88
2022-12-01T08:40:27.786Z,32.22
2022-12-01T08:42:54.328Z,29.48
2022-12-01T08:45:20.885Z,33.65
2022-12-01T08:47:47.512Z,31.02
2022-12-01T08:50:14.238Z,30.98
2022-12-01T08:52:40.790Z,30.77
2022-12-01T08:55:08.095Z,32.80
2022-12-01T08:57:34.647Z,30.98
2022-12-01T09:00:01.297Z,31.17
2022-12-01T09:02:28.081Z,30.05
2022-12-01T09:04:55.716Z,29.63
2022-12-01T09:07:26.339Z,30.45
2022-12-01T09:09:53.210Z,31.85
2022-12-01T09:12:19.757Z,29.30
2022-12-01T09:14:48.285Z,29.38
2022-12-01T09:17:16.512Z,30.02
2022-12-01T09:19:43.959Z,29.08
2022-12-01T09:22:11.547Z,29.27
2022-12-01T09:24:38.578Z,26.25
2022-12-01T09:27:05.907Z,28.48
2022-12-01T09:29:32.952Z,26.38
2022-12-01T09:32:00.509Z,28.92
2022-12-01T09:34:29.113Z,27.30
2022-12-01T09:36:57.614Z,28.40
2022-12-01T09:39:24.642Z,28.08
2022-12-01T09:41:57.397Z,28.63
2022-12-01T09:44:40.448Z,27.83
2022-12-01T09:47:13.984Z,29.02
2022-12-01T09:49:54.316Z,28.00
2022-12-01T09:52:23.010Z,26.25
2022-12-01T09:54:49.865Z,25.70
2022-12-01T09:57:32.568Z,28.08
2022-12-01T10:00:02.882Z,27.98
2022-12-01T10:02:54.761Z,26.52
2022-12-01T10:05:24.469Z,26.25
2022-12-01T10:08:04.436Z,28.00
2022-12-01T10:10:37.695Z,27.48
2022-12-01T10:13:23.641Z,26.17
2022-12-01T10:16:11.185Z,28.27
2022-12-01T10:21:20.214Z,23.33
2022-12-01T10:24:00.665Z,24.35
2022-12-01T10:27:00.628Z,25.38
2022-12-01T10:29:38.910Z,26.75
2022-12-01T10:32:16.756Z,23.27
2022-12-01T10:34:46.560Z,24.83
2022-12-01T10:37:25.701Z,27.77
2022-12-01T10:39:54.914Z,24.95
2022-12-01T10:42:42.058Z,24.02
2022-12-01T10:45:37.167Z,22.92
2022-12-01T10:48:06.776Z,24.65
2022-12-01T10:50:34.250Z,22.33
2022-12-01T10:53:00.795Z,23.02
2022-12-01T10:55:35.034Z,21.42
2022-12-01T10:58:13.739Z,21.65
2022-12-01T11:00:59.625Z,22.42
2022-12-01T11:03:30.572Z,23.13
2022-12-01T11:06:00.383Z,23.58
2022-12-01T11:08:37.399Z,21.65
2022-12-01T11:11:04.847Z,22.40
2022-12-01T11:13:35.469Z,23.73
2022-12-01T11:33:15.934Z,22.88
2022-12-01T11:35:47.801Z,23.42
2022-12-01T11:38:30.060Z,24.85
2022-12-01T11:40:58.365Z,23.58
2022-12-01T11:43:35.735Z,22.33
2022-12-01T11:46:06.360Z,23.80
2022-12-01T11:48:35.336Z,24.25
2022-12-01T11:51:10.954Z,24.00
2022-12-01T11:53:40.804Z,24.33
2022-12-01T11:56:25.784Z,21.42
2022-12-01T11:59:04.352Z,24.27
2022-12-01T12:01:46.409Z,22.67
2022-12-01T12:04:33.975Z,25.55
2022-12-01T12:10:10.406Z,25.48
2022-12-01T12:13:04.064Z,24.30
2022-12-01T12:15:45.901Z,26.80
2022-12-01T12:18:27.343Z,25.90
2022-12-01T12:21:09.020Z,26.75
2022-12-01T12:23:50.697Z,25.50
2022-12-01T12:26:25.390Z,25.65
2022-12-01T12:29:13.760Z,27.63
2022-12-01T12:32:17.520Z,26.63
2022-12-01T12:35:03.106Z,28.80
2022-12-01T12:37:51.440Z,27.63
2022-12-01T12:40:27.353Z,26.23
2022-12-01T12:43:03.876Z,25.65
2022-12-01T12:45:36.352Z,26.10
2022-12-01T12:48:05.551Z,26.48
2022-12-01T12:50:44.708Z,23.15
2022-12-01T12:53:22.262Z,24.33
2022-12-01T12:55:52.407Z,24.40
2022-12-01T12:58:25.431Z,26.30
2022-12-01T13:01:00.174Z,24.08
2022-12-01T13:03:49.643Z,25.88
2022-12-01T13:06:39.006Z,27.20
2022-12-01T13:09:14.088Z,28.92
2022-12-01T13:11:57.374Z,30.98
2022-12-01T13:14:29.777Z,29.70
2022-12-01T13:17:03.135Z,28.70
2022-12-01T13:19:33.559Z,28.52
2022-12-01T13:22:01.836Z,25.40
2022-12-01T13:24:30.414Z,26.13
2022-12-01T13:27:16.424Z,25.75
2022-12-01T13:29:52.291Z,26.42
2022-12-01T13:32:40.471Z,26.65
2022-12-01T13:35:27.273Z,26.92
2022-12-01T13:37:55.349Z,26.80
2022-12-01T13:40:28.641Z,28.23
2022-12-01T13:43:10.639Z,25.83
2022-12-01T13:45:40.217Z,26.23
2022-12-01T13:48:27.800Z,26.50
2022-12-01T13:53:34.337Z,27.98
2022-12-01T13:56:03.787Z,25.98
2022-12-01T13:58:33.393Z,26.38
2022-12-01T14:01:21.991Z,29.58
2022-12-01T14:04:13.580Z,24.92
2022-12-01T14:06:52.489Z,24.65
2022-12-01T14:09:23.849Z,24.40
2022-12-01T14:11:59.252Z,26.60
2022-12-01T14:14:28.713Z,25.95
2022-12-01T14:17:02.472Z,25.33
2022-12-01T14:19:29.110Z,25.95
2022-12-01T14:21:57.595Z,26.15
2022-12-01T14:24:37.404Z,26.58
2022-12-01T14:27:05.481Z,25.42
2022-12-01T14:29:38.638Z,26.77
2022-12-01T14:32:19.942Z,25.60
2022-12-01T14:34:51.853Z,23.98
2022-12-01T14:37:25.597Z,23.70
2022-12-01T14:40:11.159Z,22.67
2022-12-01T14:43:00.843Z,25.83
2022-12-01T14:45:47.240Z,24.17
2022-12-01T14:48:18.550Z,23.05
2022-12-01T14:50:51.769Z,25.20
2022-12-01T14:53:32.088Z,24.85
2022-12-01T14:56:10.614Z,23.95
2022-12-01T14:58:37.176Z,27.20
2022-12-01T15:01:12.880Z,26.00
2022-12-01T15:03:42.460Z,25.55
2022-12-01T15:06:10.363Z,25.92
2022-12-01T15:08:41.890Z,28.67
2022-12-01T15:11:22.876Z,27.42
2022-12-01T15:13:56.950Z,27.55
2022-12-01T15:16:26.649Z,26.52
2022-12-01T15:18:53.540Z,25.85
2022-12-01T15:21:29.081Z,27.20
2022-12-01T15:24:00.294Z,29.30
2022-12-01T15:26:31.993Z,26.98
2022-12-01T15:29:19.284Z,29.60
2022-12-01T15:31:52.152Z,27.33
2022-12-01T15:34:26.981Z,28.38
2022-12-01T15:36:54.364Z,26.50
2022-12-01T15:39:32.867Z,27.38
2022-12-01T15:42:00.072Z,26.33
2022-12-01T15:44:31.663Z,26.33
2022-12-01T15:46:58.387Z,28.35
2022-12-01T15:49:29.627Z,37.10
2022-12-01T15:52:09.135Z,33.47
2022-12-01T15:54:36.917Z,29.88
2022-12-01T15:57:03.695Z,26.20
2022-12-01T15:59:38.937Z,30.40
2022-12-01T16:02:33.125Z,28.02
2022-12-01T16:05:08.949Z,25.92
2022-12-01T16:08:11.639Z,27.70
2022-12-01T16:10:29.135Z,26.20
2022-12-01T16:13:33.043Z,25.60
2022-12-01T16:15:59.682Z,29.10
2022-12-01T16:18:33.683Z,30.30
2022-12-01T16:21:05.289Z,28.35
2022-12-01T16:23:33.051Z,30.98
2022-12-01T16:26:02.134Z,31.73
2022-12-01T16:28:37.619Z,28.88
2022-12-01T16:31:05.718Z,28.45
2022-12-01T16:33:37.615Z,29.20
2022-12-01T16:36:04.570Z,26.58
2022-12-01T16:38:31.102Z,28.27
2022-12-01T16:41:13.738Z,26.77
2022-12-01T16:43:50.199Z,26.50
2022-12-01T16:46:25.922Z,27.63
2022-12-01T16:48:52.654Z,25.92
2022-12-01T16:51:29.395Z,26.95
2022-12-01T16:53:59.449Z,27.70
2022-12-01T16:56:26.459Z,28.80
2022-12-01T16:58:53.129Z,27.35
2022-12-01T17:01:19.752Z,26.27
2022-12-01T17:03:46.318Z,27.52
2022-12-01T17:06:17.469Z,26.83
2022-12-01T17:08:45.706Z,27.63
2022-12-01T17:11:13.769Z,26.70
2022-12-01T17:13:40.841Z,27.83
2022-12-01T17:16:13.841Z,30.52
2022-12-01T17:18:43.306Z,28.85
2022-12-01T17:21:11.339Z,29.20
2022-12-01T17:23:38.690Z,31.35
2022-12-01T17:26:14.027Z,32.30
2022-12-01T17:28:40.668Z,36.60
2022-12-01T17:31:08.151Z,36.70
2022-12-01T17:33:35.861Z,39.10
2022-12-01T17:36:05.179Z,47.78
2022-12-01T17:38:35.074Z,42.50
2022-12-01T17:41:13.802Z,35.45
2022-12-01T17:43:40.870Z,32.75
2022-12-01T17:46:10.388Z,33.83
2022-12-01T17:48:38.886Z,36.80
2022-12-01T17:51:06.466Z,34.53
2022-12-01T17:53:33.303Z,32.38
2022-12-01T17:55:59.850Z,32.42
2022-12-01T17:58:26.726Z,32.55
2022-12-01T18:00:53.889Z,29.77
2022-12-01T18:03:21.078Z,31.38
2022-12-01T18:06:01.711Z,30.55
2022-12-01T18:08:30.345Z,27.88
2022-12-01T18:11:02.281Z,31.73
2022-12-01T18:13:29.379Z,29.48
2022-12-01T18:15:56.003Z,29.85
2022-12-01T18:18:22.644Z,32.38
2022-12-01T18:20:49.437Z,29.70
2022-12-01T18:23:16.012Z,26.70
2022-12-01T18:25:42.531Z,29.67
2022-12-01T18:28:11.046Z,30.27
2022-12-01T18:30:38.917Z,31.52
2022-12-01T18:33:10.849Z,31.17
2022-12-01T18:35:43.273Z,30.38
2022-12-01T18:38:10.502Z,29.08
2022-12-01T18:40:38.490Z,31.52
2022-12-01T18:43:05.127Z,33.00
2022-12-01T18:45:31.743Z,30.02
2022-12-01T18:47:58.311Z,32.08
2022-12-01T18:50:24.831Z,32.40
2022-12-01T18:52:51.363Z,30.20
2022-12-01T18:55:17.919Z,30.38
2022-12-01T18:57:44.429Z,30.45
2022-12-01T19:00:11.751Z,30.77
2022-12-01T19:02:38.298Z,30.95
2022-12-01T19:05:05.409Z,30.65
2022-12-01T19:07:32.030Z,29.50
2022-12-01T19:09:58.554Z,30.27
2022-12-01T19:12:25.235Z,30.73
2022-12-01T19:14:53.076Z,31.83
2022-12-01T19:17:20.085Z,33.35
2022-12-01T19:19:47.442Z,32.33
2022-12-01T19:22:14.037Z,31.55
2022-12-01T19:24:42.798Z,33.30
2022-12-01T19:27:12.489Z,29.55
2022-12-01T19:29:38.985Z,32.08
2022-12-01T19:32:06.682Z,32.38
2022-12-01T19:34:33.224Z,30.98
2022-12-01T19:37:00.778Z,31.73
2022-12-01T19:39:27.404Z,31.73
2022-12-01T19:41:54.238Z,31.13
2022-12-01T19:44:20.744Z,35.38
2022-12-01T19:49:14.127Z,33.67
2022-12-01T19:51:41.200Z,32.53
2022-12-01T19:54:13.320Z,34.63
2022-12-01T19:56:39.923Z,33.45
2022-12-01T19:59:07.892Z,38.20
2022-12-01T20:01:34.576Z,35.10
2022-12-01T20:04:01.089Z,37.30
2022-12-01T20:08:58.140Z,36.40
2022-12-01T20:11:25.455Z,36.53
2022-12-01T20:13:52.584Z,35.08
2022-12-01T20:16:21.636Z,35.85
2022-12-01T20:18:49.120Z,37.70
2022-12-01T20:21:19.341Z,41.33
2022-12-01T20:23:51.076Z,41.25
2022-12-01T20:26:19.232Z,39.67
2022-12-01T20:28:49.328Z,40.15
2022-12-01T20:31:25.347Z,42.55
2022-12-01T20:33:54.959Z,41.17
2022-12-01T20:36:22.565Z,41.63
2022-12-01T20:38:49.073Z,41.03
2022-12-01T20:41:16.054Z,41.47
2022-12-01T20:43:42.821Z,41.08
2022-12-01T20:46:10.947Z,39.95
2022-12-01T20:48:37.718Z,40.80
2022-12-01T20:51:06.525Z,40.50
2022-12-01T20:53:32.998Z,42.30
2022-12-01T20:56:07.610Z,41.22
2022-12-01T20:58:37.478Z,43.80
2022-12-01T21:01:13.183Z,42.13
2022-12-01T21:03:41.996Z,41.83
2022-12-01T21:06:10.376Z,38.88
2022-12-01T21:08:38.519Z,44.35
2022-12-01T21:11:08.242Z,53.35
2022-12-01T21:13:43.817Z,47.50
2022-12-01T21:16:14.290Z,42.80
2022-12-01T21:18:51.864Z,43.92
2022-12-01T21:21:23.035Z,41.90
2022-12-01T21:24:05.421Z,44.10
2022-12-01T21:26:32.027Z,45.47
2022-12-01T21:28:59.999Z,42.42
2022-12-01T21:31:27.167Z,44.53
2022-12-01T21:33:54.005Z,44.90
2022-12-01T21:36:22.703Z,45.70
2022-12-01T21:39:00.426Z,43.35
2022-12-01T21:41:29.357Z,42.05
2022-12-01T21:44:11.094Z,41.83
2022-12-01T21:46:41.190Z,43.30
2022-12-01T21:49:13.589Z,40.85
2022-12-01T21:51:40.140Z,42.22
2022-12-01T21:54:13.020Z,41.60
2022-12-01T21:56:39.827Z,40.60
2022-12-01T21:59:19.542Z,43.40
2022-12-01T22:01:47.484Z,44.53
2022-12-01T22:04:20.862Z,59.25
2022-12-01T22:06:57.740Z,46.58
2022-12-01T22:09:34.099Z,42.13
2022-12-01T22:12:25.895Z,44.80
2022-12-01T22:14:58.639Z,43.88
2022-12-01T22:17:25.150Z,46.35
2022-12-01T22:20:02.260Z,41.35
2022-12-01T22:22:30.235Z,41.35
2022-12-01T22:25:15.832Z,44.38
2022-12-01T22:27:44.842Z,42.97
2022-12-01T22:30:18.645Z,43.80
2022-12-01T22:32:51.132Z,40.90
2022-12-01T22:35:22.964Z,42.60
2022-12-01T22:38:27.816Z,42.83
2022-12-01T22:40:57.358Z,42.15
2022-12-01T22:43:29.979Z,44.78
2022-12-01T22:45:59.614Z,42.45
2022-12-01T22:48:38.103Z,42.88
2022-12-01T22:51:16.895Z,41.80
2022-12-01T22:53:45.195Z,42.65
2022-12-01T22:56:27.543Z,44.03
2022-12-01T22:58:54.633Z,41.97
2022-12-01T23:18:25.324Z,43.55
2022-12-01T23:20:59.018Z,42.33
2022-12-01T23:23:31.025Z,43.53
2022-12-01T23:25:58.786Z,41.45
2022-12-01T23:28:25.331Z,41.33
2022-12-01T23:30:56.515Z,42.53
2022-12-01T23:33:25.908Z,45.83
2022-12-01T23:36:04.699Z,44.85
2022-12-01T23:38:31.161Z,43.72
2022-12-01T23:41:01.373Z,42.22
2022-12-01T23:43:31.740Z,44.55
2022-12-01T23:46:04.517Z,43.58
2022-12-01T23:48:36.272Z,43.55
2022-12-01T23:51:04.100Z,42.17
2022-12-01T23:53:32.434Z,41.03
2022-12-01T23:56:07.217Z,41.08
2022-12-01T23:58:34.272Z,41.65
